sensor_id;sensor_type;location;lat;lon;timestamp;temperature;humidity
37974;DHT22;23796;51.458;7.000;2023-02-28T00:01:08;1.60;99.90
37974;DHT22;23796;51.458;7.000;2023-02-28T00:03:34;1.60;99.90
37974;DHT22;23796;51.458;7.000;2023-02-28T00:06:04;1.60;99.90
37974;DHT22;23796;51.458;7.000;2023-02-28T00:08:32;1.60;99.90
37974;DHT22;23796;51.458;7.000;2023-02-28T00:11:03;1.60;99.90
37974;DHT22;23796;51.458;7.000;2023-02-28T00:13:29;1.60;99.90
37974;DHT22;23796;51.458;7.000;2023-02-28T00:16:04;1.60;99.90
37974;DHT22;23796;51.458;7.000;2023-02-28T00:18:30;1.60;99.90
37974;DHT22;23796;51.458;7.000;2023-02-28T00:20:55;1.60;99.90
37974;DHT22;23796;51.458;7.000;2023-02-28T00:23:21;1.60;99.90
37974;DHT22;23796;51.458;7.000;2023-02-28T00:25:47;1.60;99.90
37974;DHT22;23796;51.458;7.000;2023-02-28T00:28:15;1.70;99.90
37974;DHT22;23796;51.458;7.000;2023-02-28T00:30:40;1.70;99.90
37974;DHT22;23796;51.458;7.000;2023-02-28T00:33:06;1.70;99.90
37974;DHT22;23796;51.458;7.000;2023-02-28T00:35:31;1.60;99.90
37974;DHT22;23796;51.458;7.000;2023-02-28T00:37:59;1.60;99.90
37974;DHT22;23796;51.458;7.000;2023-02-28T00:40:25;1.60;99.90
37974;DHT22;23796;51.458;7.000;2023-02-28T00:42:51;1.60;99.90
37974;DHT22;23796;51.458;7.000;2023-02-28T00:45:16;1.60;99.90
37974;DHT22;23796;51.458;7.000;2023-02-28T00:47:42;1.60;99.90
37974;DHT22;23796;51.458;7.000;2023-02-28T00:50:11;1.60;99.90
37974;DHT22;23796;51.458;7.000;2023-02-28T00:52:36;1.60;99.90
37974;DHT22;23796;51.458;7.000;2023-02-28T00:55:02;1.50;99.90
37974;DHT22;23796;51.458;7.000;2023-02-28T00:57:30;1.50;99.90
37974;DHT22;23796;51.458;7.000;2023-02-28T00:59:58;1.40;99.90
37974;DHT22;23796;51.458;7.000;2023-02-28T01:02:23;1.30;99.90
37974;DHT22;23796;51.458;7.000;2023-02-28T01:04:51;1.40;99.90
37974;DHT22;23796;51.458;7.000;2023-02-28T01:07:19;1.30;99.90
37974;DHT22;23796;51.458;7.000;2023-02-28T01:09:45;1.40;99.90
37974;DHT22;23796;51.458;7.000;2023-02-28T01:12:10;1.40;99.90
37974;DHT22;23796;51.458;7.000;2023-02-28T01:14:41;1.30;99.90
37974;DHT22;23796;51.458;7.000;2023-02-28T01:17:06;1.40;99.90
37974;DHT22;23796;51.458;7.000;2023-02-28T01:19:36;1.30;99.90
37974;DHT22;23796;51.458;7.000;2023-02-28T01:22:03;1.40;99.90
37974;DHT22;23796;51.458;7.000;2023-02-28T01:24:29;1.30;99.90
37974;DHT22;23796;51.458;7.000;2023-02-28T01:26:54;1.20;99.90
37974;DHT22;23796;51.458;7.000;2023-02-28T01:29:20;1.20;99.90
37974;DHT22;23796;51.458;7.000;2023-02-28T01:31:45;1.10;99.90
37974;DHT22;23796;51.458;7.000;2023-02-28T01:34:11;1.10;99.90
37974;DHT22;23796;51.458;7.000;2023-02-28T01:36:37;1.10;99.90
37974;DHT22;23796;51.458;7.000;2023-02-28T01:39:03;1.00;99.90
37974;DHT22;23796;51.458;7.000;2023-02-28T01:41:32;1.00;99.90
37974;DHT22;23796;51.458;7.000;2023-02-28T01:46:30;1.00;99.90
37974;DHT22;23796;51.458;7.000;2023-02-28T01:49:16;1.00;99.90
37974;DHT22;23796;51.458;7.000;2023-02-28T01:51:45;1.00;99.90
37974;DHT22;23796;51.458;7.000;2023-02-28T01:54:19;1.00;99.90
37974;DHT22;23796;51.458;7.000;2023-02-28T01:57:07;1.00;99.90
37974;DHT22;23796;51.458;7.000;2023-02-28T01:59:42;1.00;99.90
37974;DHT22;23796;51.458;7.000;2023-02-28T02:02:16;0.90;99.90
37974;DHT22;23796;51.458;7.000;2023-02-28T02:04:56;0.80;99.90
37974;DHT22;23796;51.458;7.000;2023-02-28T02:07:23;0.70;99.90
37974;DHT22;23796;51.458;7.000;2023-02-28T02:09:50;0.70;99.90
37974;DHT22;23796;51.458;7.000;2023-02-28T02:12:27;0.70;99.90
37974;DHT22;23796;51.458;7.000;2023-02-28T02:17:48;0.70;99.90
37974;DHT22;23796;51.458;7.000;2023-02-28T02:39:06;0.70;99.90
37974;DHT22;23796;51.458;7.000;2023-02-28T02:41:39;0.60;99.90
37974;DHT22;23796;51.458;7.000;2023-02-28T02:46:48;0.60;99.90
37974;DHT22;23796;51.458;7.000;2023-02-28T02:49:21;0.60;99.90
37974;DHT22;23796;51.458;7.000;2023-02-28T02:51:48;0.70;99.90
37974;DHT22;23796;51.458;7.000;2023-02-28T02:54:19;0.60;99.90
37974;DHT22;23796;51.458;7.000;2023-02-28T02:56:48;0.60;99.90
37974;DHT22;23796;51.458;7.000;2023-02-28T02:59:18;0.60;99.90
37974;DHT22;23796;51.458;7.000;2023-02-28T03:01:48;0.60;99.90
37974;DHT22;23796;51.458;7.000;2023-02-28T03:04:21;0.60;99.90
37974;DHT22;23796;51.458;7.000;2023-02-28T03:06:50;0.70;99.90
37974;DHT22;23796;51.458;7.000;2023-02-28T03:09:20;0.60;99.90
37974;DHT22;23796;51.458;7.000;2023-02-28T03:11:46;0.60;99.90
37974;DHT22;23796;51.458;7.000;2023-02-28T03:22:27;0.60;99.90
37974;DHT22;23796;51.458;7.000;2023-02-28T03:25:14;0.60;99.90
37974;DHT22;23796;51.458;7.000;2023-02-28T03:31:03;0.50;99.90
37974;DHT22;23796;51.458;7.000;2023-02-28T03:33:47;0.50;99.90
37974;DHT22;23796;51.458;7.000;2023-02-28T03:36:22;0.50;99.90
37974;DHT22;23796;51.458;7.000;2023-02-28T03:39:03;0.50;99.90
37974;DHT22;23796;51.458;7.000;2023-02-28T03:41:37;0.50;99.90
37974;DHT22;23796;51.458;7.000;2023-02-28T03:44:29;0.40;99.90
37974;DHT22;23796;51.458;7.000;2023-02-28T03:46:59;0.40;99.90
37974;DHT22;23796;51.458;7.000;2023-02-28T03:49:32;0.40;99.90
37974;DHT22;23796;51.458;7.000;2023-02-28T03:52:02;0.40;99.90
37974;DHT22;23796;51.458;7.000;2023-02-28T03:54:33;0.40;99.90
37974;DHT22;23796;51.458;7.000;2023-02-28T03:57:10;0.40;99.90
37974;DHT22;23796;51.458;7.000;2023-02-28T03:59:45;0.40;99.90
37974;DHT22;23796;51.458;7.000;2023-02-28T04:02:12;0.40;99.90
37974;DHT22;23796;51.458;7.000;2023-02-28T04:04:38;0.40;99.90
37974;DHT22;23796;51.458;7.000;2023-02-28T04:07:07;0.40;99.90
37974;DHT22;23796;51.458;7.000;2023-02-28T04:09:34;0.40;99.90
37974;DHT22;23796;51.458;7.000;2023-02-28T04:12:00;0.40;99.90
37974;DHT22;23796;51.458;7.000;2023-02-28T04:14:26;0.40;99.90
37974;DHT22;23796;51.458;7.000;2023-02-28T04:16:54;0.40;99.90
37974;DHT22;23796;51.458;7.000;2023-02-28T04:19:23;0.30;99.90
37974;DHT22;23796;51.458;7.000;2023-02-28T04:21:52;0.40;99.90
37974;DHT22;23796;51.458;7.000;2023-02-28T04:24:24;0.40;99.90
37974;DHT22;23796;51.458;7.000;2023-02-28T04:26:52;0.30;99.90
37974;DHT22;23796;51.458;7.000;2023-02-28T04:29:26;0.30;99.90
37974;DHT22;23796;51.458;7.000;2023-02-28T04:31:53;0.30;99.90
37974;DHT22;23796;51.458;7.000;2023-02-28T04:34:20;0.30;99.90
37974;DHT22;23796;51.458;7.000;2023-02-28T04:36:47;0.20;99.90
37974;DHT22;23796;51.458;7.000;2023-02-28T04:39:15;0.20;99.90
37974;DHT22;23796;51.458;7.000;2023-02-28T04:41:44;0.10;99.90
37974;DHT22;23796;51.458;7.000;2023-02-28T04:44:10;0.10;99.90
37974;DHT22;23796;51.458;7.000;2023-02-28T04:46:35;0.10;99.90
37974;DHT22;23796;51.458;7.000;2023-02-28T04:49:03;0.10;99.90
37974;DHT22;23796;51.458;7.000;2023-02-28T04:51:29;0.10;99.90
37974;DHT22;23796;51.458;7.000;2023-02-28T04:53:55;0.10;99.90
37974;DHT22;23796;51.458;7.000;2023-02-28T04:56:23;0.10;99.90
37974;DHT22;23796;51.458;7.000;2023-02-28T04:58:50;0.10;99.90
37974;DHT22;23796;51.458;7.000;2023-02-28T05:03:53;0.10;99.90
37974;DHT22;23796;51.458;7.000;2023-02-28T05:06:19;0.10;99.90
37974;DHT22;23796;51.458;7.000;2023-02-28T05:08:45;0.10;99.90
37974;DHT22;23796;51.458;7.000;2023-02-28T05:11:21;0.10;99.90
37974;DHT22;23796;51.458;7.000;2023-02-28T05:13:47;0.10;99.90
37974;DHT22;23796;51.458;7.000;2023-02-28T05:16:14;0.00;99.90
37974;DHT22;23796;51.458;7.000;2023-02-28T05:18:40;0.00;99.90
37974;DHT22;23796;51.458;7.000;2023-02-28T05:21:06;0.10;99.90
37974;DHT22;23796;51.458;7.000;2023-02-28T05:23:32;0.10;99.90
37974;DHT22;23796;51.458;7.000;2023-02-28T05:26:00;0.00;99.90
37974;DHT22;23796;51.458;7.000;2023-02-28T05:28:25;0.00;99.90
37974;DHT22;23796;51.458;7.000;2023-02-28T05:30:51;-0.10;99.90
37974;DHT22;23796;51.458;7.000;2023-02-28T05:33:16;0.00;99.90
37974;DHT22;23796;51.458;7.000;2023-02-28T05:35:42;0.00;99.90
37974;DHT22;23796;51.458;7.000;2023-02-28T05:38:08;0.00;99.90
37974;DHT22;23796;51.458;7.000;2023-02-28T05:40:34;0.00;99.90
37974;DHT22;23796;51.458;7.000;2023-02-28T05:43:02;0.00;99.90
37974;DHT22;23796;51.458;7.000;2023-02-28T05:45:28;0.00;99.90
37974;DHT22;23796;51.458;7.000;2023-02-28T05:47:56;0.00;99.90
37974;DHT22;23796;51.458;7.000;2023-02-28T05:50:22;0.00;99.90
37974;DHT22;23796;51.458;7.000;2023-02-28T05:52:51;0.00;99.90
37974;DHT22;23796;51.458;7.000;2023-02-28T05:55:16;-0.10;99.90
37974;DHT22;23796;51.458;7.000;2023-02-28T05:57:42;-0.10;99.90
37974;DHT22;23796;51.458;7.000;2023-02-28T06:00:09;-0.10;99.90
37974;DHT22;23796;51.458;7.000;2023-02-28T06:02:34;-0.20;99.90
37974;DHT22;23796;51.458;7.000;2023-02-28T06:05:00;-0.10;99.90
37974;DHT22;23796;51.458;7.000;2023-02-28T06:07:26;-0.10;99.90
37974;DHT22;23796;51.458;7.000;2023-02-28T06:09:51;-0.20;99.90
37974;DHT22;23796;51.458;7.000;2023-02-28T06:12:17;-0.30;99.90
37974;DHT22;23796;51.458;7.000;2023-02-28T06:14:42;-0.30;99.90
37974;DHT22;23796;51.458;7.000;2023-02-28T06:17:09;-0.30;99.90
37974;DHT22;23796;51.458;7.000;2023-02-28T06:19:37;-0.30;99.90
37974;DHT22;23796;51.458;7.000;2023-02-28T06:22:04;-0.30;99.90
37974;DHT22;23796;51.458;7.000;2023-02-28T06:24:30;-0.30;99.90
37974;DHT22;23796;51.458;7.000;2023-02-28T06:26:59;-0.30;99.90
37974;DHT22;23796;51.458;7.000;2023-02-28T06:29:33;-0.30;99.90
37974;DHT22;23796;51.458;7.000;2023-02-28T06:32:05;-0.20;99.90
37974;DHT22;23796;51.458;7.000;2023-02-28T06:34:31;-0.20;99.90
37974;DHT22;23796;51.458;7.000;2023-02-28T06:36:59;-0.20;99.90
37974;DHT22;23796;51.458;7.000;2023-02-28T06:39:28;-0.10;99.90
37974;DHT22;23796;51.458;7.000;2023-02-28T06:41:54;-0.10;99.90
37974;DHT22;23796;51.458;7.000;2023-02-28T06:44:20;-0.10;99.90
37974;DHT22;23796;51.458;7.000;2023-02-28T06:46:46;0.00;99.90
37974;DHT22;23796;51.458;7.000;2023-02-28T06:49:15;0.00;99.90
37974;DHT22;23796;51.458;7.000;2023-02-28T06:51:42;0.10;99.90
37974;DHT22;23796;51.458;7.000;2023-02-28T06:54:10;0.10;99.90
37974;DHT22;23796;51.458;7.000;2023-02-28T06:56:36;0.10;99.90
37974;DHT22;23796;51.458;7.000;2023-02-28T06:59:02;0.10;99.90
37974;DHT22;23796;51.458;7.000;2023-02-28T07:01:29;0.20;99.90
37974;DHT22;23796;51.458;7.000;2023-02-28T07:03:59;0.20;99.90
37974;DHT22;23796;51.458;7.000;2023-02-28T07:06:25;0.20;99.90
37974;DHT22;23796;51.458;7.000;2023-02-28T07:08:53;0.30;99.90
37974;DHT22;23796;51.458;7.000;2023-02-28T07:11:22;0.20;99.90
37974;DHT22;23796;51.458;7.000;2023-02-28T07:13:51;0.20;99.90
37974;DHT22;23796;51.458;7.000;2023-02-28T07:16:19;0.20;99.90
37974;DHT22;23796;51.458;7.000;2023-02-28T07:18:51;0.30;99.90
37974;DHT22;23796;51.458;7.000;2023-02-28T07:21:17;0.40;99.90
37974;DHT22;23796;51.458;7.000;2023-02-28T07:23:43;0.40;99.90
37974;DHT22;23796;51.458;7.000;2023-02-28T07:26:14;0.40;99.90
37974;DHT22;23796;51.458;7.000;2023-02-28T07:28:44;0.40;99.90
37974;DHT22;23796;51.458;7.000;2023-02-28T07:31:13;0.50;99.90
37974;DHT22;23796;51.458;7.000;2023-02-28T07:33:42;0.60;99.90
37974;DHT22;23796;51.458;7.000;2023-02-28T07:36:11;0.60;99.90
37974;DHT22;23796;51.458;7.000;2023-02-28T07:38:44;0.60;99.90
37974;DHT22;23796;51.458;7.000;2023-02-28T07:41:10;0.60;99.90
37974;DHT22;23796;51.458;7.000;2023-02-28T07:43:36;0.70;99.90
37974;DHT22;23796;51.458;7.000;2023-02-28T07:46:07;0.70;99.90
37974;DHT22;23796;51.458;7.000;2023-02-28T07:48:35;0.70;99.90
37974;DHT22;23796;51.458;7.000;2023-02-28T07:51:04;0.70;99.90
37974;DHT22;23796;51.458;7.000;2023-02-28T07:53:32;0.70;99.90
37974;DHT22;23796;51.458;7.000;2023-02-28T07:56:00;0.70;99.90
37974;DHT22;23796;51.458;7.000;2023-02-28T07:58:28;0.60;99.90
37974;DHT22;23796;51.458;7.000;2023-02-28T08:00:54;0.70;99.90
37974;DHT22;23796;51.458;7.000;2023-02-28T08:03:23;0.80;99.90
37974;DHT22;23796;51.458;7.000;2023-02-28T08:05:49;0.90;99.90
37974;DHT22;23796;51.458;7.000;2023-02-28T08:08:16;0.90;99.90
37974;DHT22;23796;51.458;7.000;2023-02-28T08:10:44;0.80;99.90
37974;DHT22;23796;51.458;7.000;2023-02-28T08:13:10;0.90;99.90
37974;DHT22;23796;51.458;7.000;2023-02-28T08:15:35;0.80;99.90
37974;DHT22;23796;51.458;7.000;2023-02-28T08:18:02;0.90;99.90
37974;DHT22;23796;51.458;7.000;2023-02-28T08:20:30;0.80;99.90
37974;DHT22;23796;51.458;7.000;2023-02-28T08:22:58;0.90;99.90
37974;DHT22;23796;51.458;7.000;2023-02-28T08:25:23;0.90;99.90
37974;DHT22;23796;51.458;7.000;2023-02-28T08:27:58;1.00;99.90
37974;DHT22;23796;51.458;7.000;2023-02-28T08:30:24;1.10;99.90
37974;DHT22;23796;51.458;7.000;2023-02-28T08:32:50;1.20;99.90
37974;DHT22;23796;51.458;7.000;2023-02-28T08:35:15;1.20;99.90
37974;DHT22;23796;51.458;7.000;2023-02-28T08:37:41;1.30;99.90
37974;DHT22;23796;51.458;7.000;2023-02-28T08:40:07;1.30;99.90
37974;DHT22;23796;51.458;7.000;2023-02-28T08:42:33;1.40;99.90
37974;DHT22;23796;51.458;7.000;2023-02-28T08:45:01;1.20;99.90
37974;DHT22;23796;51.458;7.000;2023-02-28T08:47:27;1.20;99.90
37974;DHT22;23796;51.458;7.000;2023-02-28T08:49:55;1.40;99.90
37974;DHT22;23796;51.458;7.000;2023-02-28T08:52:22;1.50;99.90
37974;DHT22;23796;51.458;7.000;2023-02-28T08:54:48;1.60;99.90
37974;DHT22;23796;51.458;7.000;2023-02-28T08:57:14;1.80;99.90
37974;DHT22;23796;51.458;7.000;2023-02-28T08:59:42;1.90;99.90
37974;DHT22;23796;51.458;7.000;2023-02-28T09:02:09;2.00;99.90
37974;DHT22;23796;51.458;7.000;2023-02-28T09:04:37;2.00;99.90
37974;DHT22;23796;51.458;7.000;2023-02-28T09:07:05;1.90;99.90
37974;DHT22;23796;51.458;7.000;2023-02-28T09:09:33;2.00;99.90
37974;DHT22;23796;51.458;7.000;2023-02-28T09:12:01;2.10;99.90
37974;DHT22;23796;51.458;7.000;2023-02-28T09:14:29;2.30;99.90
37974;DHT22;23796;51.458;7.000;2023-02-28T09:16:54;2.40;99.90
37974;DHT22;23796;51.458;7.000;2023-02-28T09:19:20;2.60;99.90
37974;DHT22;23796;51.458;7.000;2023-02-28T09:21:48;2.70;99.90
37974;DHT22;23796;51.458;7.000;2023-02-28T09:24:16;2.80;99.90
37974;DHT22;23796;51.458;7.000;2023-02-28T09:26:49;2.90;99.90
37974;DHT22;23796;51.458;7.000;2023-02-28T09:29:14;3.00;99.90
37974;DHT22;23796;51.458;7.000;2023-02-28T09:31:42;3.10;99.90
37974;DHT22;23796;51.458;7.000;2023-02-28T09:34:07;3.20;99.90
37974;DHT22;23796;51.458;7.000;2023-02-28T09:36:35;3.30;99.90
37974;DHT22;23796;51.458;7.000;2023-02-28T09:39:04;3.40;99.90
37974;DHT22;23796;51.458;7.000;2023-02-28T09:41:38;3.50;99.90
37974;DHT22;23796;51.458;7.000;2023-02-28T09:44:31;3.50;99.90
37974;DHT22;23796;51.458;7.000;2023-02-28T09:47:10;3.40;99.90
37974;DHT22;23796;51.458;7.000;2023-02-28T09:49:40;3.50;99.90
37974;DHT22;23796;51.458;7.000;2023-02-28T09:52:15;3.60;99.90
37974;DHT22;23796;51.458;7.000;2023-02-28T09:54:42;4.40;99.90
37974;DHT22;23796;51.458;7.000;2023-02-28T09:57:11;5.60;99.90
37974;DHT22;23796;51.458;7.000;2023-02-28T10:05:19;6.00;97.20
37974;DHT22;23796;51.458;7.000;2023-02-28T10:08:26;5.90;97.10
37974;DHT22;23796;51.458;7.000;2023-02-28T10:10:58;5.30;96.30
37974;DHT22;23796;51.458;7.000;2023-02-28T10:13:35;5.10;97.70
37974;DHT22;23796;51.458;7.000;2023-02-28T10:16:06;4.90;98.10
37974;DHT22;23796;51.458;7.000;2023-02-28T10:19:02;5.50;97.40
37974;DHT22;23796;51.458;7.000;2023-02-28T10:21:41;6.70;95.60
37974;DHT22;23796;51.458;7.000;2023-02-28T10:24:23;7.10;95.50
37974;DHT22;23796;51.458;7.000;2023-02-28T10:26:52;7.10;93.80
37974;DHT22;23796;51.458;7.000;2023-02-28T10:29:23;6.80;94.20
37974;DHT22;23796;51.458;7.000;2023-02-28T10:31:53;8.00;93.60
37974;DHT22;23796;51.458;7.000;2023-02-28T10:34:22;8.50;90.30
37974;DHT22;23796;51.458;7.000;2023-02-28T10:36:50;7.60;91.60
37974;DHT22;23796;51.458;7.000;2023-02-28T10:42:01;7.90;90.30
37974;DHT22;23796;51.458;7.000;2023-02-28T10:44:27;7.40;90.80
37974;DHT22;23796;51.458;7.000;2023-02-28T10:46:52;7.40;90.70
37974;DHT22;23796;51.458;7.000;2023-02-28T10:49:27;7.10;89.30
37974;DHT22;23796;51.458;7.000;2023-02-28T10:52:00;6.70;90.00
37974;DHT22;23796;51.458;7.000;2023-02-28T10:54:34;6.30;90.20
37974;DHT22;23796;51.458;7.000;2023-02-28T10:59:32;5.70;90.00
37974;DHT22;23796;51.458;7.000;2023-02-28T11:01:58;5.50;90.30
37974;DHT22;23796;51.458;7.000;2023-02-28T11:09:46;6.50;88.10
37974;DHT22;23796;51.458;7.000;2023-02-28T11:12:37;7.20;86.60
37974;DHT22;23796;51.458;7.000;2023-02-28T11:15:34;7.70;83.20
37974;DHT22;23796;51.458;7.000;2023-02-28T11:20:41;7.60;82.50
37974;DHT22;23796;51.458;7.000;2023-02-28T11:23:12;8.80;81.40
37974;DHT22;23796;51.458;7.000;2023-02-28T11:25:51;9.50;79.10
37974;DHT22;23796;51.458;7.000;2023-02-28T11:28:38;9.10;76.40
37974;DHT22;23796;51.458;7.000;2023-02-28T11:36:30;9.00;76.00
37974;DHT22;23796;51.458;7.000;2023-02-28T11:39:08;9.00;75.30
37974;DHT22;23796;51.458;7.000;2023-02-28T11:47:13;8.30;76.10
37974;DHT22;23796;51.458;7.000;2023-02-28T11:55:32;8.40;76.40
37974;DHT22;23796;51.458;7.000;2023-02-28T11:58:14;8.70;76.00
37974;DHT22;23796;51.458;7.000;2023-02-28T12:01:10;9.20;76.40
37974;DHT22;23796;51.458;7.000;2023-02-28T12:03:54;9.00;75.20
37974;DHT22;23796;51.458;7.000;2023-02-28T12:11:54;7.50;78.10
37974;DHT22;23796;51.458;7.000;2023-02-28T12:14:46;7.10;79.90
37974;DHT22;23796;51.458;7.000;2023-02-28T12:28:06;6.50;81.90
37974;DHT22;23796;51.458;7.000;2023-02-28T12:30:38;6.40;81.70
37974;DHT22;23796;51.458;7.000;2023-02-28T12:33:11;6.30;81.30
37974;DHT22;23796;51.458;7.000;2023-02-28T12:35:49;6.30;81.60
37974;DHT22;23796;51.458;7.000;2023-02-28T12:38:29;6.20;82.40
37974;DHT22;23796;51.458;7.000;2023-02-28T12:41:16;6.20;82.60
37974;DHT22;23796;51.458;7.000;2023-02-28T12:43:51;6.20;83.00
37974;DHT22;23796;51.458;7.000;2023-02-28T12:46:28;6.20;83.20
37974;DHT22;23796;51.458;7.000;2023-02-28T12:48:57;6.20;83.70
37974;DHT22;23796;51.458;7.000;2023-02-28T12:51:25;6.20;83.10
37974;DHT22;23796;51.458;7.000;2023-02-28T12:56:53;6.10;83.60
37974;DHT22;23796;51.458;7.000;2023-02-28T12:59:38;6.10;84.50
37974;DHT22;23796;51.458;7.000;2023-02-28T13:07:46;6.20;84.80
37974;DHT22;23796;51.458;7.000;2023-02-28T13:10:15;6.20;84.30
37974;DHT22;23796;51.458;7.000;2023-02-28T13:12:50;6.10;84.40
37974;DHT22;23796;51.458;7.000;2023-02-28T13:15:21;6.20;85.40
37974;DHT22;23796;51.458;7.000;2023-02-28T13:17:55;6.10;85.80
37974;DHT22;23796;51.458;7.000;2023-02-28T13:20:36;6.20;86.50
37974;DHT22;23796;51.458;7.000;2023-02-28T13:23:05;6.20;87.10
37974;DHT22;23796;51.458;7.000;2023-02-28T13:25:52;6.30;87.50
37974;DHT22;23796;51.458;7.000;2023-02-28T13:31:18;6.40;87.10
37974;DHT22;23796;51.458;7.000;2023-02-28T13:38:47;6.50;90.00
37974;DHT22;23796;51.458;7.000;2023-02-28T13:55:06;6.30;91.70
37974;DHT22;23796;51.458;7.000;2023-02-28T14:00:46;6.20;92.00
37974;DHT22;23796;51.458;7.000;2023-02-28T14:09:00;6.50;91.90
37974;DHT22;23796;51.458;7.000;2023-02-28T14:13:54;6.70;91.40
37974;DHT22;23796;51.458;7.000;2023-02-28T14:16:24;6.70;91.50
37974;DHT22;23796;51.458;7.000;2023-02-28T14:19:30;6.50;91.60
37974;DHT22;23796;51.458;7.000;2023-02-28T14:22:27;6.40;92.10
37974;DHT22;23796;51.458;7.000;2023-02-28T14:28:03;6.50;91.80
37974;DHT22;23796;51.458;7.000;2023-02-28T14:36:16;6.40;92.30
37974;DHT22;23796;51.458;7.000;2023-02-28T14:38:57;6.40;92.70
37974;DHT22;23796;51.458;7.000;2023-02-28T14:41:37;6.40;92.60
37974;DHT22;23796;51.458;7.000;2023-02-28T14:46:45;6.10;92.80
37974;DHT22;23796;51.458;7.000;2023-02-28T14:49:18;6.00;93.10
37974;DHT22;23796;51.458;7.000;2023-02-28T14:51:44;6.10;93.10
37974;DHT22;23796;51.458;7.000;2023-02-28T14:54:15;6.20;93.10
37974;DHT22;23796;51.458;7.000;2023-02-28T14:56:41;6.30;93.30
37974;DHT22;23796;51.458;7.000;2023-02-28T14:59:29;6.40;93.50
37974;DHT22;23796;51.458;7.000;2023-02-28T15:07:21;6.30;93.70
37974;DHT22;23796;51.458;7.000;2023-02-28T15:12:35;6.40;93.30
37974;DHT22;23796;51.458;7.000;2023-02-28T15:15:02;6.40;93.20
37974;DHT22;23796;51.458;7.000;2023-02-28T15:17:28;6.20;93.80
37974;DHT22;23796;51.458;7.000;2023-02-28T15:19:55;6.30;93.80
37974;DHT22;23796;51.458;7.000;2023-02-28T15:22:28;6.10;94.00
37974;DHT22;23796;51.458;7.000;2023-02-28T15:24:57;6.20;94.20
37974;DHT22;23796;51.458;7.000;2023-02-28T15:27:30;6.20;93.90
37974;DHT22;23796;51.458;7.000;2023-02-28T15:30:05;6.30;93.60
37974;DHT22;23796;51.458;7.000;2023-02-28T15:32:37;6.30;93.40
37974;DHT22;23796;51.458;7.000;2023-02-28T15:35:24;6.30;93.40
37974;DHT22;23796;51.458;7.000;2023-02-28T15:37:53;6.30;93.40
37974;DHT22;23796;51.458;7.000;2023-02-28T15:40:26;6.30;93.60
37974;DHT22;23796;51.458;7.000;2023-02-28T15:48:34;6.00;94.50
37974;DHT22;23796;51.458;7.000;2023-02-28T15:51:02;6.10;94.80
37974;DHT22;23796;51.458;7.000;2023-02-28T15:53:40;6.10;95.10
37974;DHT22;23796;51.458;7.000;2023-02-28T15:56:22;5.90;95.70
37974;DHT22;23796;51.458;7.000;2023-02-28T15:58:48;5.70;96.30
37974;DHT22;23796;51.458;7.000;2023-02-28T16:01:37;5.60;96.70
37974;DHT22;23796;51.458;7.000;2023-02-28T16:04:14;5.60;97.20
37974;DHT22;23796;51.458;7.000;2023-02-28T16:06:42;5.70;97.30
37974;DHT22;23796;51.458;7.000;2023-02-28T16:09:16;5.80;97.60
37974;DHT22;23796;51.458;7.000;2023-02-28T16:11:54;5.80;97.50
37974;DHT22;23796;51.458;7.000;2023-02-28T16:14:25;5.80;97.40
37974;DHT22;23796;51.458;7.000;2023-02-28T16:16:55;5.80;97.10
37974;DHT22;23796;51.458;7.000;2023-02-28T16:19:25;5.80;97.30
37974;DHT22;23796;51.458;7.000;2023-02-28T16:21:51;5.70;97.30
37974;DHT22;23796;51.458;7.000;2023-02-28T16:24:17;5.70;97.30
37974;DHT22;23796;51.458;7.000;2023-02-28T16:26:46;5.70;97.40
37974;DHT22;23796;51.458;7.000;2023-02-28T16:29:29;5.60;97.60
37974;DHT22;23796;51.458;7.000;2023-02-28T16:32:04;5.60;97.80
37974;DHT22;23796;51.458;7.000;2023-02-28T16:34:35;5.50;98.00
37974;DHT22;23796;51.458;7.000;2023-02-28T16:37:09;5.50;98.10
37974;DHT22;23796;51.458;7.000;2023-02-28T16:39:35;5.50;98.20
37974;DHT22;23796;51.458;7.000;2023-02-28T16:42:03;5.30;98.30
37974;DHT22;23796;51.458;7.000;2023-02-28T16:47:03;5.20;98.20
37974;DHT22;23796;51.458;7.000;2023-02-28T16:49:30;5.20;98.30
37974;DHT22;23796;51.458;7.000;2023-02-28T16:51:55;5.20;98.30
37974;DHT22;23796;51.458;7.000;2023-02-28T16:54:21;5.20;98.30
37974;DHT22;23796;51.458;7.000;2023-02-28T16:56:50;5.10;98.50
37974;DHT22;23796;51.458;7.000;2023-02-28T16:59:27;5.10;98.60
37974;DHT22;23796;51.458;7.000;2023-02-28T17:01:55;5.00;98.80
37974;DHT22;23796;51.458;7.000;2023-02-28T17:04:26;4.90;98.90
37974;DHT22;23796;51.458;7.000;2023-02-28T17:06:52;4.90;99.10
37974;DHT22;23796;51.458;7.000;2023-02-28T17:09:20;4.80;99.20
37974;DHT22;23796;51.458;7.000;2023-02-28T17:11:46;4.80;99.40
37974;DHT22;23796;51.458;7.000;2023-02-28T17:14:15;4.80;99.50
37974;DHT22;23796;51.458;7.000;2023-02-28T17:16:41;4.70;99.50
37974;DHT22;23796;51.458;7.000;2023-02-28T17:19:15;4.70;99.80
37974;DHT22;23796;51.458;7.000;2023-02-28T17:21:44;4.70;99.90
37974;DHT22;23796;51.458;7.000;2023-02-28T17:24:12;4.60;99.90
37974;DHT22;23796;51.458;7.000;2023-02-28T17:26:42;4.60;99.90
37974;DHT22;23796;51.458;7.000;2023-02-28T17:29:21;4.50;99.90
37974;DHT22;23796;51.458;7.000;2023-02-28T17:31:47;4.50;99.90
37974;DHT22;23796;51.458;7.000;2023-02-28T17:34:13;4.50;99.90
37974;DHT22;23796;51.458;7.000;2023-02-28T17:36:44;4.40;99.90
37974;DHT22;23796;51.458;7.000;2023-02-28T17:39:12;4.40;99.90
37974;DHT22;23796;51.458;7.000;2023-02-28T17:41:41;4.40;99.90
37974;DHT22;23796;51.458;7.000;2023-02-28T17:44:08;4.40;99.90
37974;DHT22;23796;51.458;7.000;2023-02-28T17:46:35;4.30;99.90
37974;DHT22;23796;51.458;7.000;2023-02-28T17:49:01;4.30;99.90
37974;DHT22;23796;51.458;7.000;2023-02-28T17:51:27;4.30;99.90
37974;DHT22;23796;51.458;7.000;2023-02-28T17:53:55;4.30;99.90
37974;DHT22;23796;51.458;7.000;2023-02-28T17:56:23;4.20;99.90
37974;DHT22;23796;51.458;7.000;2023-02-28T17:58:49;4.20;99.90
37974;DHT22;23796;51.458;7.000;2023-02-28T18:01:15;4.20;99.90
37974;DHT22;23796;51.458;7.000;2023-02-28T18:03:41;4.20;99.90
37974;DHT22;23796;51.458;7.000;2023-02-28T18:06:09;4.20;99.90
37974;DHT22;23796;51.458;7.000;2023-02-28T18:08:39;4.20;99.90
37974;DHT22;23796;51.458;7.000;2023-02-28T18:11:05;4.10;99.90
37974;DHT22;23796;51.458;7.000;2023-02-28T18:13:30;4.10;99.90
37974;DHT22;23796;51.458;7.000;2023-02-28T18:15:56;4.10;99.90
37974;DHT22;23796;51.458;7.000;2023-02-28T18:18:21;4.10;99.90
37974;DHT22;23796;51.458;7.000;2023-02-28T18:20:49;4.10;99.90
37974;DHT22;23796;51.458;7.000;2023-02-28T18:23:15;4.00;99.90
37974;DHT22;23796;51.458;7.000;2023-02-28T18:25:42;4.00;99.90
37974;DHT22;23796;51.458;7.000;2023-02-28T18:28:12;4.00;99.90
37974;DHT22;23796;51.458;7.000;2023-02-28T18:30:38;4.00;99.90
37974;DHT22;23796;51.458;7.000;2023-02-28T18:33:04;4.00;99.90
37974;DHT22;23796;51.458;7.000;2023-02-28T18:35:30;3.90;99.90
37974;DHT22;23796;51.458;7.000;2023-02-28T18:38:16;3.90;99.90
37974;DHT22;23796;51.458;7.000;2023-02-28T18:40:52;3.90;99.90
37974;DHT22;23796;51.458;7.000;2023-02-28T18:43:18;3.90;99.90
37974;DHT22;23796;51.458;7.000;2023-02-28T18:45:43;3.90;99.90